createdAt,value
2023-05-11T00:00:04.452Z,31.05
2023-05-11T00:01:09.488Z,31.25
2023-05-11T00:02:13.148Z,31.15
2023-05-11T00:03:15.297Z,31.44
2023-05-11T00:04:17.797Z,31.04
2023-05-11T00:05:20.060Z,31.09
2023-05-11T00:06:21.931Z,31.45
2023-05-11T00:07:24.284Z,31.18
2023-05-11T00:08:26.859Z,31.01
2023-05-11T00:09:28.786Z,31.08
2023-05-11T00:10:31.390Z,31.06
2023-05-11T00:11:33.320Z,31.23
2023-05-11T00:12:35.159Z,31.11
2023-05-11T00:13:37.251Z,31.26
2023-05-11T00:14:39.214Z,31.50
2023-05-11T00:15:41.247Z,31.52
2023-05-11T00:16:43.171Z,31.33
2023-05-11T00:17:45.423Z,31.24
2023-05-11T00:18:49.053Z,31.18
2023-05-11T00:19:51.144Z,31.27
2023-05-11T00:20:53.149Z,31.28
2023-05-11T00:21:55.108Z,31.44
2023-05-11T00:22:57.001Z,31.16
2023-05-11T00:23:58.930Z,31.11
2023-05-11T00:25:00.915Z,31.29
2023-05-11T00:26:03.427Z,31.54
2023-05-11T00:27:06.124Z,31.16
2023-05-11T00:28:08.077Z,31.69
2023-05-11T00:29:09.880Z,31.31
2023-05-11T00:30:13.450Z,31.60
2023-05-11T00:31:15.430Z,31.46
2023-05-11T00:32:17.413Z,31.45
2023-05-11T00:33:19.552Z,31.54
2023-05-11T00:34:21.449Z,31.36
2023-05-11T00:35:23.872Z,31.57
2023-05-11T00:36:25.770Z,31.22
2023-05-11T00:37:27.657Z,31.48
2023-05-11T00:38:29.608Z,31.47
2023-05-11T00:39:31.608Z,31.59
2023-05-11T00:40:33.897Z,31.51
2023-05-11T00:41:36.514Z,31.80
2023-05-11T00:42:38.490Z,31.32
2023-05-11T00:43:40.925Z,31.50
2023-05-11T00:44:43.315Z,31.72
2023-05-11T00:45:48.371Z,31.65
2023-05-11T00:46:50.296Z,31.40
2023-05-11T00:47:52.237Z,31.68
2023-05-11T00:48:54.551Z,31.47
2023-05-11T00:49:57.592Z,31.60
2023-05-11T00:51:00.791Z,31.72
2023-05-11T00:52:03.226Z,31.34
2023-05-11T00:53:05.312Z,31.86
2023-05-11T00:54:13.119Z,31.60
2023-05-11T00:55:19.121Z,31.66
2023-05-11T00:56:21.937Z,31.57
2023-05-11T00:57:23.982Z,31.83
2023-05-11T00:58:25.936Z,31.72
2023-05-11T00:59:28.104Z,31.81
2023-05-11T01:00:29.940Z,31.85
2023-05-11T01:01:31.870Z,31.78
2023-05-11T01:02:34.372Z,31.53
2023-05-11T01:03:36.878Z,31.68
2023-05-11T01:04:38.977Z,31.66
2023-05-11T01:06:17.431Z,31.58
2023-05-11T01:07:44.267Z,31.47
2023-05-11T01:08:56.934Z,31.57
2023-05-11T01:10:14.444Z,31.58
2023-05-11T01:11:34.028Z,31.87
2023-05-11T01:12:53.052Z,31.66
2023-05-11T01:14:12.735Z,31.39
2023-05-11T01:15:30.348Z,31.93
2023-05-11T01:16:40.498Z,31.62
2023-05-11T01:18:07.040Z,31.70
2023-05-11T01:19:18.431Z,31.72
2023-05-11T01:20:29.401Z,31.75
2023-05-11T01:21:33.890Z,31.74
2023-05-11T01:23:07.066Z,31.82
2023-05-11T01:24:45.882Z,31.77
2023-05-11T01:26:16.929Z,31.51
2023-05-11T01:27:38.860Z,31.66
2023-05-11T01:29:14.451Z,31.99
2023-05-11T01:30:49.591Z,31.75
2023-05-11T01:31:56.618Z,31.83
2023-05-11T01:33:07.804Z,32.08
2023-05-11T01:34:21.699Z,31.87
2023-05-11T01:35:26.828Z,31.79
2023-05-11T01:36:39.380Z,32.04
2023-05-11T01:37:47.834Z,31.90
2023-05-11T01:38:54.075Z,32.18
2023-05-11T01:40:01.934Z,31.80
2023-05-11T01:41:19.873Z,32.14
2023-05-11T01:42:38.683Z,32.12
2023-05-11T01:43:45.185Z,31.98
2023-05-11T01:44:52.051Z,31.95
2023-05-11T01:46:00.697Z,32.14
2023-05-11T01:47:06.531Z,31.91
2023-05-11T01:48:19.800Z,32.13
2023-05-11T01:49:22.242Z,32.06
2023-05-11T01:50:26.250Z,31.92
2023-05-11T01:51:34.657Z,31.79
2023-05-11T01:52:40.035Z,31.84
2023-05-11T01:53:45.052Z,31.93
2023-05-11T01:54:49.998Z,32.05
2023-05-11T01:55:55.518Z,31.90
2023-05-11T01:57:00.531Z,32.09
2023-05-11T01:58:06.762Z,32.00
2023-05-11T01:59:12.148Z,31.84
2023-05-11T02:00:17.413Z,31.94
2023-05-11T02:01:20.644Z,32.35
2023-05-11T02:02:25.598Z,31.90
2023-05-11T02:03:31.410Z,31.92
2023-05-11T02:04:36.617Z,31.88
2023-05-11T02:05:41.977Z,31.92
2023-05-11T02:06:48.423Z,31.91
2023-05-11T02:07:54.399Z,31.88
2023-05-11T02:08:58.413Z,32.08
2023-05-11T02:10:01.152Z,32.44
2023-05-11T02:11:04.404Z,31.98
2023-05-11T02:12:08.793Z,32.13
2023-05-11T02:13:11.736Z,32.24
2023-05-11T02:14:17.580Z,31.88
2023-05-11T02:15:25.490Z,32.01
2023-05-11T02:16:29.505Z,32.01
2023-05-11T02:17:34.288Z,32.24
2023-05-11T02:18:41.958Z,32.41
2023-05-11T02:19:45.495Z,32.17
2023-05-11T02:20:48.306Z,32.08
2023-05-11T02:21:53.601Z,32.22
2023-05-11T02:22:57.514Z,32.15
2023-05-11T02:24:06.794Z,32.12
2023-05-11T02:25:11.035Z,32.43
2023-05-11T02:26:16.681Z,32.40
2023-05-11T02:27:18.964Z,32.15
2023-05-11T02:28:21.136Z,31.91
2023-05-11T02:29:23.357Z,31.95
2023-05-11T02:30:29.315Z,32.15
2023-05-11T02:31:40.289Z,32.07
2023-05-11T02:32:54.886Z,32.24
2023-05-11T02:34:21.167Z,32.31
2023-05-11T02:35:29.359Z,32.25
2023-05-11T02:36:37.580Z,32.16
2023-05-11T02:37:46.954Z,32.35
2023-05-11T02:38:55.325Z,32.11
2023-05-11T02:40:09.432Z,32.33
2023-05-11T02:41:18.347Z,32.34
2023-05-11T02:42:23.733Z,32.33
2023-05-11T02:43:32.578Z,32.17
2023-05-11T02:44:39.768Z,32.22
2023-05-11T02:45:46.500Z,32.06
2023-05-11T02:46:51.650Z,32.07
2023-05-11T02:47:56.729Z,32.06
2023-05-11T02:49:02.701Z,32.14
2023-05-11T02:50:07.824Z,32.16
2023-05-11T02:51:14.259Z,32.06
2023-05-11T02:52:17.959Z,32.14
2023-05-11T02:53:24.184Z,32.05
2023-05-11T02:54:28.703Z,32.13
2023-05-11T02:55:32.090Z,32.22
2023-05-11T02:56:34.365Z,32.27
2023-05-11T02:57:36.404Z,32.21
2023-05-11T02:58:39.113Z,32.38
2023-05-11T02:59:41.618Z,32.33
2023-05-11T03:00:43.985Z,32.44
2023-05-11T03:01:46.472Z,32.13
2023-05-11T03:02:48.921Z,32.44
2023-05-11T03:03:51.353Z,32.35
2023-05-11T03:04:53.789Z,32.18
2023-05-11T03:05:55.666Z,32.51
2023-05-11T03:06:57.806Z,32.24
2023-05-11T03:08:00.693Z,32.11
2023-05-11T03:09:03.189Z,32.07
2023-05-11T03:10:06.337Z,32.23
2023-05-11T03:11:11.380Z,32.52
2023-05-11T03:12:15.057Z,32.39
2023-05-11T03:13:20.589Z,32.19
2023-05-11T03:14:23.518Z,32.26
2023-05-11T03:15:27.011Z,32.40
2023-05-11T03:16:31.279Z,32.41
2023-05-11T03:17:34.716Z,32.27
2023-05-11T03:18:37.327Z,32.28
2023-05-11T03:19:42.036Z,32.29
2023-05-11T03:20:46.332Z,32.12
2023-05-11T03:21:51.770Z,32.08
2023-05-11T03:22:55.641Z,32.36
2023-05-11T03:23:58.809Z,32.51
2023-05-11T03:25:04.065Z,32.36
2023-05-11T03:26:07.617Z,32.41
2023-05-11T03:27:11.801Z,32.73
2023-05-11T03:28:14.974Z,32.35
2023-05-11T03:29:18.927Z,32.37
2023-05-11T03:30:23.359Z,32.58
2023-05-11T03:31:25.394Z,32.54
2023-05-11T03:32:27.790Z,32.43
2023-05-11T03:33:29.925Z,32.41
2023-05-11T03:34:32.714Z,32.52
2023-05-11T03:35:37.616Z,32.49
2023-05-11T03:36:40.975Z,32.33
2023-05-11T03:37:45.100Z,32.66
2023-05-11T03:38:48.860Z,32.65
2023-05-11T03:39:57.226Z,32.46
2023-05-11T03:41:01.341Z,32.55
2023-05-11T03:42:05.534Z,32.61
2023-05-11T03:43:12.721Z,32.55
2023-05-11T03:44:19.996Z,32.56
2023-05-11T03:45:23.552Z,32.62
2023-05-11T03:46:27.034Z,32.40
2023-05-11T03:47:32.351Z,32.52
2023-05-11T03:48:34.630Z,32.63
2023-05-11T03:49:41.235Z,32.34
2023-05-11T03:50:44.481Z,32.72
2023-05-11T03:51:47.856Z,32.54
2023-05-11T03:52:50.753Z,32.71
2023-05-11T03:53:52.815Z,32.45
2023-05-11T03:54:54.916Z,32.46
2023-05-11T03:55:57.455Z,32.42
2023-05-11T03:56:59.415Z,32.60
2023-05-11T03:58:03.011Z,32.62
2023-05-11T03:59:07.493Z,32.63
2023-05-11T04:00:11.779Z,32.45
2023-05-11T04:01:14.577Z,32.46
2023-05-11T04:02:17.105Z,32.58
2023-05-11T04:03:19.389Z,32.62
2023-05-11T04:04:30.267Z,32.50
2023-05-11T04:05:32.486Z,32.59
2023-05-11T04:06:34.537Z,32.65
2023-05-11T04:07:38.665Z,32.61
2023-05-11T04:08:40.543Z,32.62
2023-05-11T04:09:42.576Z,32.72
2023-05-11T04:10:44.447Z,32.39
2023-05-11T04:11:46.421Z,32.60
2023-05-11T04:12:48.399Z,32.59
2023-05-11T04:13:50.231Z,32.56
2023-05-11T04:14:52.331Z,32.55
2023-05-11T04:15:54.461Z,32.41
2023-05-11T04:16:56.393Z,32.57
2023-05-11T04:17:58.257Z,32.57
2023-05-11T04:19:00.529Z,32.81
2023-05-11T04:20:02.494Z,32.64
2023-05-11T04:21:06.431Z,32.63
2023-05-11T04:22:08.382Z,32.60
2023-05-11T04:23:10.598Z,32.43
2023-05-11T04:24:12.552Z,32.68
2023-05-11T04:25:14.688Z,32.64
2023-05-11T04:26:16.563Z,32.56
2023-05-11T04:27:18.432Z,32.65
2023-05-11T04:28:22.132Z,32.63
2023-05-11T04:29:24.113Z,32.55
2023-05-11T04:30:26.043Z,32.60
2023-05-11T04:31:27.967Z,32.68
2023-05-11T04:32:30.476Z,32.60
2023-05-11T04:33:32.395Z,32.68
2023-05-11T04:34:34.947Z,32.78
2023-05-11T04:35:40.131Z,32.55
2023-05-11T04:36:42.384Z,32.54
2023-05-11T04:37:44.317Z,32.36
2023-05-11T04:38:46.219Z,32.15
2023-05-11T04:39:48.136Z,32.64
2023-05-11T04:40:50.681Z,32.36
2023-05-11T04:41:52.687Z,32.65
2023-05-11T04:42:54.943Z,32.72
2023-05-11T04:43:56.796Z,32.74
2023-05-11T04:44:58.721Z,32.52
2023-05-11T04:46:00.741Z,32.67
2023-05-11T04:47:02.632Z,32.65
2023-05-11T04:48:05.219Z,32.84
2023-05-11T04:49:07.452Z,32.48
2023-05-11T04:50:09.916Z,32.70
2023-05-11T04:51:11.832Z,32.48
2023-05-11T04:52:13.747Z,32.67
2023-05-11T04:53:15.969Z,32.92
2023-05-11T04:54:17.976Z,32.65
2023-05-11T04:55:19.888Z,32.71
2023-05-11T04:56:21.829Z,32.88
2023-05-11T04:57:23.864Z,32.74
2023-05-11T04:58:26.105Z,32.80
2023-05-11T04:59:27.965Z,32.99
2023-05-11T05:00:29.962Z,32.74
2023-05-11T05:01:31.931Z,32.55
2023-05-11T05:02:34.083Z,32.64
2023-05-11T05:03:36.114Z,32.93
2023-05-11T05:04:38.043Z,32.71
2023-05-11T05:05:40.144Z,32.86
2023-05-11T05:06:42.328Z,32.61
2023-05-11T05:07:44.365Z,32.65
2023-05-11T05:08:46.146Z,32.77
2023-05-11T05:09:47.985Z,32.77
2023-05-11T05:10:49.850Z,32.66
2023-05-11T05:11:51.682Z,32.82
2023-05-11T05:12:53.579Z,32.59
2023-05-11T05:13:55.768Z,32.82
2023-05-11T05:14:57.678Z,32.72
2023-05-11T05:15:59.545Z,32.81
2023-05-11T05:17:01.633Z,32.71
2023-05-11T05:18:03.748Z,32.75
2023-05-11T05:19:05.770Z,33.00
2023-05-11T05:20:08.673Z,32.91
2023-05-11T05:21:10.966Z,32.77
2023-05-11T05:22:12.866Z,33.08
2023-05-11T05:23:14.790Z,32.86
2023-05-11T05:24:16.950Z,32.86
2023-05-11T05:25:19.033Z,32.69
2023-05-11T05:26:21.743Z,32.83
2023-05-11T05:27:23.615Z,32.91
2023-05-11T05:28:25.500Z,32.96
2023-05-11T05:29:27.374Z,32.89
2023-05-11T05:30:29.363Z,32.86
2023-05-11T05:31:31.558Z,32.69
2023-05-11T05:32:33.504Z,32.98
2023-05-11T05:33:35.745Z,32.97
2023-05-11T05:34:37.628Z,32.87
2023-05-11T05:35:39.585Z,33.00
2023-05-11T05:36:41.841Z,32.94
2023-05-11T05:37:43.848Z,32.84
2023-05-11T05:38:45.717Z,33.13
2023-05-11T05:39:48.510Z,32.98
2023-05-11T05:40:50.755Z,32.89
2023-05-11T05:41:52.795Z,32.94
2023-05-11T05:42:54.998Z,33.12
2023-05-11T05:43:56.909Z,33.05
2023-05-11T05:44:58.897Z,32.86
2023-05-11T05:46:00.833Z,32.95
2023-05-11T05:47:02.861Z,32.79
2023-05-11T05:48:06.207Z,32.81
2023-05-11T05:49:08.104Z,33.10
2023-05-11T05:50:10.352Z,33.01
2023-05-11T05:51:12.444Z,33.05
2023-05-11T05:52:14.450Z,33.08
2023-05-11T05:53:16.388Z,33.00
2023-05-11T05:54:18.315Z,33.04
2023-05-11T05:55:20.294Z,33.09
2023-05-11T05:56:22.777Z,32.98
2023-05-11T05:57:25.216Z,33.47
2023-05-11T05:58:27.084Z,33.17
2023-05-11T05:59:28.978Z,32.48
2023-05-11T06:00:31.226Z,33.13
2023-05-11T06:01:33.302Z,32.97
2023-05-11T06:02:35.576Z,33.13
2023-05-11T06:03:37.663Z,32.95
2023-05-11T06:04:39.885Z,32.98
2023-05-11T06:05:42.376Z,33.13
2023-05-11T06:06:44.641Z,33.25
2023-05-11T06:07:57.980Z,33.19
2023-05-11T06:09:09.392Z,33.23
2023-05-11T06:10:11.196Z,33.04
2023-05-11T06:11:13.195Z,33.18
2023-05-11T06:12:15.389Z,33.38
2023-05-11T06:13:17.275Z,33.11
2023-05-11T06:14:19.168Z,33.14
2023-05-11T06:15:21.571Z,33.46
2023-05-11T06:16:25.483Z,33.42
2023-05-11T06:17:28.464Z,33.50
2023-05-11T06:18:30.595Z,33.59
2023-05-11T06:19:32.690Z,33.33
2023-05-11T06:20:34.769Z,33.34
2023-05-11T06:21:36.768Z,33.73
2023-05-11T06:22:38.925Z,33.41
2023-05-11T06:23:40.772Z,33.33
2023-05-11T06:24:42.602Z,33.43
2023-05-11T06:25:44.824Z,33.54
2023-05-11T06:26:46.764Z,33.44
2023-05-11T06:27:48.596Z,33.46
2023-05-11T06:28:52.314Z,33.52
2023-05-11T06:29:54.404Z,33.67
2023-05-11T06:30:59.621Z,33.71
2023-05-11T06:32:02.116Z,33.44
2023-05-11T06:33:04.481Z,33.62
2023-05-11T06:34:06.389Z,33.60
2023-05-11T06:35:08.904Z,33.73
2023-05-11T06:36:11.610Z,33.71
2023-05-11T06:37:20.280Z,33.68
2023-05-11T06:38:22.288Z,33.72
2023-05-11T06:39:24.075Z,33.82
2023-05-11T06:40:26.403Z,33.86
2023-05-11T06:41:28.556Z,33.89
2023-05-11T06:42:30.571Z,33.86
2023-05-11T06:43:32.766Z,33.90
2023-05-11T06:44:34.829Z,33.95
2023-05-11T06:45:37.602Z,33.97
2023-05-11T06:46:39.627Z,34.08
2023-05-11T06:47:42.094Z,34.05
2023-05-11T06:48:44.059Z,34.00
2023-05-11T06:49:46.105Z,34.04
2023-05-11T06:50:47.928Z,34.10
2023-05-11T06:51:49.813Z,34.14
2023-05-11T06:52:52.174Z,34.00
2023-05-11T06:53:54.045Z,34.06
2023-05-11T06:54:56.681Z,33.69
2023-05-11T06:55:58.595Z,34.02
2023-05-11T06:57:00.584Z,34.11
2023-05-11T06:58:02.524Z,34.10
2023-05-11T06:59:04.430Z,33.95
2023-05-11T07:00:07.629Z,34.02
2023-05-11T07:01:10.970Z,34.04
2023-05-11T07:02:12.949Z,33.90
2023-05-11T07:03:15.308Z,34.00
2023-05-11T07:04:17.343Z,33.88
2023-05-11T07:05:19.483Z,33.90
2023-05-11T07:06:21.671Z,34.06
2023-05-11T07:07:24.058Z,33.97
2023-05-11T07:08:25.975Z,34.05
2023-05-11T07:09:28.161Z,33.76
2023-05-11T07:10:31.098Z,34.16
2023-05-11T07:11:33.045Z,34.02
2023-05-11T07:12:35.047Z,34.11
2023-05-11T07:13:36.872Z,33.99
2023-05-11T07:14:38.678Z,33.99
2023-05-11T07:15:40.549Z,34.10
2023-05-11T07:16:42.774Z,34.07
2023-05-11T07:17:48.104Z,34.11
2023-05-11T07:18:50.292Z,33.85
2023-05-11T07:19:52.620Z,33.91
2023-05-11T07:20:54.627Z,34.06
2023-05-11T07:21:56.808Z,33.94
2023-05-11T07:22:59.672Z,33.98
2023-05-11T07:24:01.674Z,34.01
2023-05-11T07:25:04.917Z,33.87
2023-05-11T07:26:09.979Z,34.03
2023-05-11T07:27:12.068Z,34.01
2023-05-11T07:28:14.211Z,33.96
2023-05-11T07:29:16.209Z,33.72
2023-05-11T07:30:18.846Z,34.03
2023-05-11T07:31:21.415Z,33.91
2023-05-11T07:32:23.446Z,33.92
2023-05-11T07:33:25.713Z,34.01
2023-05-11T07:34:27.825Z,33.80
2023-05-11T07:35:30.143Z,33.96
2023-05-11T07:36:32.530Z,33.82
2023-05-11T07:37:34.741Z,33.88
2023-05-11T07:38:36.728Z,34.00
2023-05-11T07:39:38.567Z,34.00
2023-05-11T07:40:40.861Z,33.99
2023-05-11T07:41:43.004Z,33.97
2023-05-11T07:42:45.068Z,33.84
2023-05-11T07:43:46.973Z,34.05
2023-05-11T07:44:48.921Z,33.97
2023-05-11T07:45:50.909Z,34.03
2023-05-11T07:46:52.876Z,33.77
2023-05-11T07:47:54.845Z,33.83
2023-05-11T07:49:11.272Z,34.03
2023-05-11T07:50:17.697Z,33.95
2023-05-11T07:51:19.593Z,33.91
2023-05-11T07:52:21.495Z,33.76
2023-05-11T07:53:23.388Z,33.85
2023-05-11T07:54:26.255Z,34.01
2023-05-11T07:55:30.546Z,33.87
2023-05-11T07:56:32.470Z,33.92
2023-05-11T07:57:34.491Z,33.95
2023-05-11T07:58:36.635Z,33.79
2023-05-11T07:59:38.548Z,34.14
2023-05-11T08:00:40.547Z,34.02
2023-05-11T08:01:42.619Z,33.84
2023-05-11T08:02:44.695Z,33.88
2023-05-11T08:03:47.923Z,34.03
2023-05-11T08:04:50.288Z,34.01
2023-05-11T08:05:52.423Z,34.08
2023-05-11T08:06:54.585Z,34.21
2023-05-11T08:07:56.516Z,33.99
2023-05-11T08:08:58.582Z,33.96
2023-05-11T08:10:00.476Z,33.83
2023-05-11T08:11:03.698Z,33.85
2023-05-11T08:12:05.832Z,33.96
2023-05-11T08:13:08.361Z,33.84
2023-05-11T08:14:10.515Z,33.72
2023-05-11T08:15:12.458Z,33.82
2023-05-11T08:16:15.237Z,33.95
2023-05-11T08:17:17.506Z,34.01
2023-05-11T08:18:19.491Z,34.12
2023-05-11T08:19:21.430Z,33.98
2023-05-11T08:20:23.600Z,34.24
2023-05-11T08:21:26.363Z,34.07
2023-05-11T08:22:28.292Z,33.87
2023-05-11T08:23:30.236Z,33.77
2023-05-11T08:24:32.515Z,33.97
2023-05-11T08:25:34.968Z,33.86
2023-05-11T08:26:38.166Z,34.13
2023-05-11T08:27:40.245Z,34.21
2023-05-11T08:28:42.175Z,33.79
2023-05-11T08:29:44.760Z,34.02
2023-05-11T08:30:46.870Z,34.09
2023-05-11T08:31:50.112Z,34.18
2023-05-11T08:32:58.693Z,34.16
2023-05-11T08:34:01.213Z,34.19
2023-05-11T08:35:04.356Z,34.23
2023-05-11T08:36:07.418Z,34.24
2023-05-11T08:37:09.374Z,34.30
2023-05-11T08:38:11.314Z,34.27
2023-05-11T08:39:13.238Z,34.24
2023-05-11T08:40:15.236Z,34.15
2023-05-11T08:41:17.160Z,34.07
2023-05-11T08:42:21.045Z,33.93
2023-05-11T08:43:26.404Z,34.16
2023-05-11T08:44:33.041Z,33.98
2023-05-11T08:45:38.686Z,33.98
2023-05-11T08:46:47.102Z,34.03
2023-05-11T08:47:49.953Z,33.76
2023-05-11T08:48:52.659Z,34.31
2023-05-11T08:49:55.221Z,34.00
2023-05-11T08:50:57.760Z,33.94
2023-05-11T08:52:05.988Z,33.97
2023-05-11T08:53:09.011Z,33.83
2023-05-11T08:54:11.197Z,33.91
2023-05-11T08:55:14.066Z,33.80
2023-05-11T08:56:17.450Z,34.06
2023-05-11T08:57:20.363Z,33.77
2023-05-11T08:58:22.945Z,33.78
2023-05-11T08:59:29.113Z,33.72
2023-05-11T09:00:32.992Z,33.89
2023-05-11T09:01:37.448Z,33.61
2023-05-11T09:02:40.481Z,33.99
2023-05-11T09:03:43.684Z,33.77
2023-05-11T09:04:48.625Z,33.75
2023-05-11T09:05:52.290Z,33.87
2023-05-11T09:06:56.482Z,33.76
2023-05-11T09:08:04.767Z,33.77
2023-05-11T09:09:06.783Z,33.86
2023-05-11T09:10:11.470Z,33.50
2023-05-11T09:11:15.502Z,33.49
2023-05-11T09:12:17.999Z,33.75
2023-05-11T09:13:20.134Z,33.61
2023-05-11T09:14:27.040Z,33.58
2023-05-11T09:15:29.388Z,33.58
2023-05-11T09:16:37.287Z,33.52
2023-05-11T09:17:39.625Z,33.47
2023-05-11T09:18:54.507Z,33.88
2023-05-11T09:20:06.723Z,33.70
2023-05-11T09:21:08.666Z,33.47
2023-05-11T09:22:10.932Z,33.50
2023-05-11T09:23:17.836Z,33.40
2023-05-11T09:24:21.541Z,33.35
2023-05-11T09:25:25.616Z,33.20
2023-05-11T09:26:29.879Z,33.39
2023-05-11T09:27:32.479Z,33.38
2023-05-11T09:28:36.035Z,33.57
2023-05-11T09:29:38.234Z,33.65
2023-05-11T09:30:40.091Z,33.53
2023-05-11T09:31:47.772Z,33.70
2023-05-11T09:32:59.579Z,33.69
2023-05-11T09:34:20.170Z,33.61
2023-05-11T09:35:33.926Z,33.45
2023-05-11T09:36:36.312Z,33.59
2023-05-11T09:37:38.383Z,33.83
2023-05-11T09:38:40.470Z,33.78
2023-05-11T09:39:59.367Z,33.67
2023-05-11T09:41:04.903Z,33.80
2023-05-11T09:42:21.756Z,33.65
2023-05-11T09:43:27.068Z,33.68
2023-05-11T09:44:32.297Z,33.42
2023-05-11T09:45:42.847Z,33.56
2023-05-11T09:46:46.122Z,33.96
2023-05-11T09:47:49.221Z,33.64
2023-05-11T09:49:03.352Z,33.84
2023-05-11T09:50:17.734Z,33.74
2023-05-11T09:51:37.032Z,33.85
2023-05-11T09:52:53.894Z,33.75
2023-05-11T09:53:56.048Z,33.78
2023-05-11T09:55:10.178Z,33.68
2023-05-11T09:56:14.104Z,33.88
2023-05-11T09:57:30.686Z,33.93
2023-05-11T09:58:48.409Z,33.82
2023-05-11T09:59:51.086Z,33.66
2023-05-11T10:00:54.080Z,34.44
2023-05-11T10:01:56.109Z,33.91
2023-05-11T10:03:04.568Z,33.91
2023-05-11T10:04:21.134Z,34.08
2023-05-11T10:05:24.780Z,33.97
2023-05-11T10:06:26.904Z,33.87
2023-05-11T10:07:29.990Z,33.83
2023-05-11T10:08:35.880Z,33.93
2023-05-11T10:09:38.876Z,33.98
2023-05-11T10:10:41.091Z,34.08
2023-05-11T10:11:47.057Z,33.75
2023-05-11T10:12:49.321Z,33.61
2023-05-11T10:13:52.793Z,33.92
2023-05-11T10:15:10.167Z,34.18
2023-05-11T10:16:16.425Z,33.86
2023-05-11T10:17:19.541Z,33.90
2023-05-11T10:18:21.880Z,33.98
2023-05-11T10:19:23.899Z,33.60
2023-05-11T10:20:26.773Z,34.06
2023-05-11T10:21:29.440Z,33.76
2023-05-11T10:22:32.282Z,33.88
2023-05-11T10:23:36.319Z,34.10
2023-05-11T10:24:39.536Z,34.11
2023-05-11T10:25:42.250Z,33.72
2023-05-11T10:26:44.852Z,33.73
2023-05-11T10:27:50.137Z,33.96
2023-05-11T10:28:53.583Z,33.84
2023-05-11T10:29:59.286Z,34.12
2023-05-11T10:31:03.985Z,34.06
2023-05-11T10:32:08.627Z,34.03
2023-05-11T10:33:12.002Z,33.97
2023-05-11T10:34:15.359Z,34.04
2023-05-11T10:35:18.271Z,34.14
2023-05-11T10:36:23.601Z,33.78
2023-05-11T10:37:26.672Z,33.93
2023-05-11T10:38:28.656Z,33.95
2023-05-11T10:39:31.932Z,34.22
2023-05-11T10:40:42.991Z,33.69
2023-05-11T10:42:33.787Z,33.99
2023-05-11T10:44:04.193Z,33.97
2023-05-11T10:45:15.451Z,33.73
2023-05-11T10:47:07.978Z,33.92
2023-05-11T10:48:10.196Z,34.12
2023-05-11T10:49:56.856Z,33.94
2023-05-11T10:51:32.409Z,33.95
2023-05-11T10:53:10.377Z,33.87
2023-05-11T10:54:40.150Z,33.65
2023-05-11T10:56:22.334Z,33.92
2023-05-11T10:58:09.528Z,33.66
2023-05-11T11:00:09.249Z,33.97
2023-05-11T11:01:46.722Z,33.61
2023-05-11T11:02:48.896Z,33.77
2023-05-11T11:04:05.556Z,33.63
2023-05-11T11:05:10.818Z,33.74
2023-05-11T11:06:26.135Z,33.56
2023-05-11T11:07:28.588Z,33.76
2023-05-11T11:08:58.352Z,33.73
2023-05-11T11:10:06.357Z,33.44
2023-05-11T11:11:51.350Z,33.48
2023-05-11T11:13:11.322Z,33.47
2023-05-11T11:14:16.055Z,33.51
2023-05-11T11:15:18.138Z,33.58
2023-05-11T11:16:22.276Z,33.71
2023-05-11T11:17:29.402Z,33.45
2023-05-11T11:18:33.542Z,33.56
2023-05-11T11:19:35.790Z,33.08
2023-05-11T11:20:49.070Z,33.40
2023-05-11T11:21:51.356Z,33.14
2023-05-11T11:22:53.359Z,33.13
2023-05-11T11:23:55.713Z,33.17
2023-05-11T11:24:57.733Z,33.06
2023-05-11T11:26:00.777Z,32.99
2023-05-11T11:27:03.529Z,33.27
2023-05-11T11:28:05.549Z,33.31
2023-05-11T11:29:11.658Z,33.10
2023-05-11T11:30:21.071Z,33.33
2023-05-11T11:31:23.666Z,33.24
2023-05-11T11:32:26.962Z,33.31
2023-05-11T11:33:33.782Z,32.99
2023-05-11T11:34:36.827Z,33.22
2023-05-11T11:35:42.275Z,33.15
2023-05-11T11:36:58.690Z,33.04
2023-05-11T11:38:03.184Z,32.92
2023-05-11T11:39:05.580Z,32.80
2023-05-11T11:40:14.818Z,33.06
2023-05-11T11:41:29.843Z,32.67
2023-05-11T11:42:32.755Z,32.84
2023-05-11T11:43:45.708Z,32.71
2023-05-11T11:44:48.565Z,33.04
2023-05-11T11:45:55.536Z,33.35
2023-05-11T11:47:19.821Z,33.13
2023-05-11T11:48:36.062Z,33.11
2023-05-11T11:49:43.758Z,33.19
2023-05-11T11:50:48.757Z,33.23
2023-05-11T11:51:51.247Z,32.86
2023-05-11T11:52:53.078Z,33.48
2023-05-11T11:53:54.982Z,33.25
2023-05-11T11:55:02.091Z,32.94
2023-05-11T11:56:05.646Z,33.45
2023-05-11T11:57:35.690Z,33.05
2023-05-11T11:58:44.395Z,33.40
2023-05-11T11:59:49.545Z,33.48
2023-05-11T12:00:52.530Z,32.81
2023-05-11T12:01:57.105Z,32.91
2023-05-11T12:02:59.797Z,33.27
2023-05-11T12:04:05.027Z,33.01
2023-05-11T12:05:19.130Z,33.29
2023-05-11T12:06:25.097Z,33.10
2023-05-11T12:07:34.062Z,33.49
2023-05-11T12:08:38.883Z,33.44
2023-05-11T12:09:41.108Z,33.07
2023-05-11T12:10:44.080Z,33.48
2023-05-11T12:11:47.936Z,33.26
2023-05-11T12:12:55.108Z,33.44
2023-05-11T12:14:00.018Z,33.14
2023-05-11T12:15:03.668Z,33.59
2023-05-11T12:16:14.299Z,33.27
2023-05-11T12:17:29.519Z,33.60
2023-05-11T12:18:32.004Z,33.25
2023-05-11T12:19:34.213Z,33.33
2023-05-11T12:20:36.347Z,33.13
2023-05-11T12:21:38.496Z,33.22
2023-05-11T12:22:41.169Z,33.50
2023-05-11T12:23:52.958Z,33.29
2023-05-11T12:25:00.321Z,33.57
2023-05-11T12:26:07.239Z,33.56
2023-05-11T12:27:09.577Z,33.80
2023-05-11T12:28:12.731Z,33.47
2023-05-11T12:29:15.897Z,33.30
2023-05-11T12:30:23.387Z,33.42
2023-05-11T12:31:27.225Z,33.50
2023-05-11T12:32:31.216Z,33.26
2023-05-11T12:33:33.158Z,33.41
2023-05-11T12:34:35.401Z,32.88
2023-05-11T12:35:39.443Z,33.04
2023-05-11T12:36:41.845Z,33.25
2023-05-11T12:37:44.112Z,32.82
2023-05-11T12:38:48.397Z,32.85
2023-05-11T12:39:56.200Z,33.08
2023-05-11T12:40:58.045Z,32.94
2023-05-11T12:42:00.075Z,32.78
2023-05-11T12:43:01.958Z,32.95
2023-05-11T12:44:04.392Z,32.92
2023-05-11T12:45:08.143Z,33.18
2023-05-11T12:46:11.280Z,33.00
2023-05-11T12:47:13.766Z,32.88
2023-05-11T12:48:16.716Z,32.99
2023-05-11T12:49:27.931Z,32.71
2023-05-11T12:50:29.823Z,32.83
2023-05-11T12:51:54.959Z,32.70
2023-05-11T12:53:17.325Z,32.72
2023-05-11T12:54:40.133Z,32.50
2023-05-11T12:55:42.928Z,32.73
2023-05-11T12:56:46.953Z,32.80
2023-05-11T12:57:50.684Z,32.66
2023-05-11T12:58:52.635Z,33.02
2023-05-11T13:00:14.719Z,32.76
2023-05-11T13:01:24.205Z,32.42
2023-05-11T13:02:26.211Z,32.83
2023-05-11T13:03:31.873Z,32.39
2023-05-11T13:04:34.005Z,32.45
2023-05-11T13:05:36.124Z,32.56
2023-05-11T13:06:38.292Z,33.12
2023-05-11T13:07:40.287Z,32.71
2023-05-11T13:08:46.986Z,32.75
2023-05-11T13:09:58.199Z,32.40
2023-05-11T13:11:32.924Z,32.44
2023-05-11T13:12:34.857Z,32.19
2023-05-11T13:13:37.440Z,32.51
2023-05-11T13:14:40.251Z,32.59
2023-05-11T13:15:52.636Z,32.58
2023-05-11T13:16:54.652Z,32.37
2023-05-11T13:18:02.488Z,32.53
2023-05-11T13:19:10.269Z,32.25
2023-05-11T13:20:27.599Z,32.45
2023-05-11T13:21:30.725Z,32.25
2023-05-11T13:22:32.837Z,32.10
2023-05-11T13:23:34.746Z,32.29
2023-05-11T13:24:36.641Z,32.13
2023-05-11T13:25:48.847Z,32.14
2023-05-11T13:26:51.576Z,32.37
2023-05-11T13:27:56.048Z,32.31
2023-05-11T13:29:09.444Z,32.46
2023-05-11T13:30:16.103Z,32.41
2023-05-11T13:31:19.505Z,32.37
2023-05-11T13:32:21.568Z,32.44
2023-05-11T13:33:23.440Z,31.97
2023-05-11T13:34:25.809Z,32.05
2023-05-11T13:35:27.731Z,31.96
2023-05-11T13:36:29.875Z,32.10
2023-05-11T13:37:32.390Z,31.64
2023-05-11T13:38:34.250Z,31.87
2023-05-11T13:39:36.382Z,31.60
2023-05-11T13:40:39.572Z,31.52
2023-05-11T13:41:41.491Z,31.46
2023-05-11T13:42:43.663Z,31.72
2023-05-11T13:43:45.537Z,31.07
2023-05-11T13:44:47.368Z,31.43
2023-05-11T13:45:49.339Z,31.16
2023-05-11T13:46:51.308Z,31.14
2023-05-11T13:47:55.321Z,31.01
2023-05-11T13:48:58.233Z,30.77
2023-05-11T13:50:00.393Z,30.96
2023-05-11T13:51:02.306Z,30.91
2023-05-11T13:52:04.622Z,30.75
2023-05-11T13:53:06.851Z,30.55
2023-05-11T13:54:08.935Z,30.71
2023-05-11T13:55:10.881Z,30.99
2023-05-11T13:56:13.117Z,30.66
2023-05-11T13:57:15.626Z,30.85
2023-05-11T13:58:17.998Z,31.06
2023-05-11T13:59:19.794Z,30.84
2023-05-11T14:00:22.164Z,30.66